Time;durP1;ratioP1;P1;durP2;ratioP2;P2;SDS_P1;SDS_P2;PMS_P1;PMS_P2;Temp;Humidity;BMP_temperature;BMP_pressure;BME280_temperature;BME280_humidity;BME280_pressure;Samples;Min_cycle;Max_cycle;Signal;HPM_P1;HPM_P2
2022/09/25 00:00:47;;;;;;;19.17;11.38;;;12.90;99.90;;;;;;5055713;28;20029;-84
2022/09/25 00:03:14;;;;;;;18.38;11.77;;;12.90;99.90;;;;;;5056597;28;20017;-85
2022/09/25 00:05:42;;;;;;;21.08;11.52;;;12.90;99.90;;;;;;5047426;22;20042;-81
2022/09/25 00:08:09;;;;;;;19.48;10.60;;;12.90;99.90;;;;;;5022549;28;20091;-78
2022/09/25 00:10:40;;;;;;;19.33;11.05;;;12.90;99.90;;;;;;5019402;28;20033;-78
2022/09/25 00:13:06;;;;;;;22.80;11.65;;;12.80;99.90;;;;;;5019115;28;20104;-82
2022/09/25 00:15:32;;;;;;;18.02;11.30;;;12.80;99.90;;;;;;5017968;28;20045;-80
2022/09/25 00:17:58;;;;;;;19.40;11.73;;;12.80;99.90;;;;;;5018268;28;20501;-80
2022/09/25 00:20:23;;;;;;;18.10;11.48;;;12.80;99.90;;;;;;5019480;28;20087;-80
2022/09/25 00:22:50;;;;;;;17.48;10.75;;;12.80;99.90;;;;;;5017622;28;20041;-79
2022/09/25 00:25:16;;;;;;;16.25;11.02;;;12.80;99.90;;;;;;5023070;28;20076;-78
2022/09/25 00:27:43;;;;;;;19.08;11.35;;;12.80;99.90;;;;;;5021433;28;20038;-79
2022/09/25 00:30:11;;;;;;;18.13;10.85;;;12.90;99.90;;;;;;5017652;28;20022;-79
2022/09/25 00:32:37;;;;;;;14.95;10.40;;;12.90;99.90;;;;;;5018254;28;20024;-79
2022/09/25 00:35:04;;;;;;;18.38;10.77;;;12.90;99.90;;;;;;5017297;28;20120;-78
2022/09/25 00:37:33;;;;;;;18.10;11.00;;;12.90;99.90;;;;;;5017410;28;20105;-79
2022/09/25 00:39:58;;;;;;;13.88;9.65;;;12.90;99.90;;;;;;5016752;28;20053;-79
2022/09/25 00:42:24;;;;;;;15.88;9.85;;;12.90;99.90;;;;;;5017256;28;20105;-79
2022/09/25 00:44:56;;;;;;;15.60;10.63;;;12.90;99.90;;;;;;5016298;28;20026;-80
2022/09/25 00:47:50;;;;;;;16.98;10.38;;;13.00;99.90;;;;;;5017160;28;20030;-79
2022/09/25 00:50:48;;;;;;;15.43;9.15;;;12.90;99.90;;;;;;5017721;28;20084;-78
2022/09/25 00:53:29;;;;;;;15.07;10.23;;;13.00;99.90;;;;;;5011620;28;20120;-80
2022/09/25 00:55:57;;;;;;;15.65;10.32;;;13.00;99.90;;;;;;5017729;28;20113;-79
2022/09/25 00:58:26;;;;;;;14.45;9.55;;;13.00;99.90;;;;;;5017177;28;20030;-78
2022/09/25 01:00:52;;;;;;;14.98;9.80;;;13.00;99.90;;;;;;5015446;28;20059;-78
2022/09/25 01:03:19;;;;;;;15.82;10.57;;;13.00;99.90;;;;;;5015932;28;20088;-79
2022/09/25 01:05:46;;;;;;;17.70;9.95;;;13.10;99.90;;;;;;5016301;28;20056;-79
2022/09/25 01:08:18;;;;;;;17.17;10.20;;;13.00;99.90;;;;;;5016300;28;20500;-78
2022/09/25 01:10:44;;;;;;;17.60;9.93;;;13.00;99.90;;;;;;5018426;28;20029;-80
2022/09/25 01:13:12;;;;;;;15.95;10.10;;;12.90;99.90;;;;;;5032802;28;20032;-78
2022/09/25 01:15:43;;;;;;;18.25;9.15;;;12.90;99.90;;;;;;5032394;28;20626;-79
2022/09/25 01:18:43;;;;;;;13.27;9.88;;;12.90;99.90;;;;;;5014911;28;20021;-78
2022/09/25 01:21:35;;;;;;;13.02;9.10;;;12.90;99.90;;;;;;4988762;28;20042;-78
2022/09/25 01:24:16;;;;;;;14.35;9.32;;;12.90;99.90;;;;;;5014100;28;20065;-79
2022/09/25 01:27:19;;;;;;;14.40;9.43;;;12.90;99.90;;;;;;5015403;28;20030;-80
2022/09/25 01:29:52;;;;;;;13.73;9.98;;;12.90;99.90;;;;;;5013702;28;20413;-79
2022/09/25 01:32:33;;;;;;;17.80;9.93;;;12.90;99.90;;;;;;5015066;28;20565;-79
2022/09/25 01:35:06;;;;;;;13.48;10.05;;;12.90;99.90;;;;;;5018682;28;20477;-78
2022/09/25 01:38:04;;;;;;;14.85;9.48;;;12.90;99.90;;;;;;5015981;28;20113;-79
2022/09/25 01:40:59;;;;;;;12.30;9.35;;;12.90;99.90;;;;;;4991930;28;20564;-78
2022/09/25 01:43:39;;;;;;;14.63;9.07;;;13.00;99.90;;;;;;5017376;28;20060;-77
2022/09/25 01:46:20;;;;;;;15.30;9.88;;;13.00;99.90;;;;;;5015839;28;20033;-79
2022/09/25 01:48:52;;;;;;;13.10;9.52;;;13.00;99.90;;;;;;5014986;28;20034;-79
2022/09/25 01:51:30;;;;;;;15.45;11.02;;;13.00;99.90;;;;;;5014224;28;20084;-79
2022/09/25 01:54:06;;;;;;;18.05;10.38;;;13.00;99.90;;;;;;5014791;28;20022;-80
2022/09/25 01:56:36;;;;;;;18.05;9.48;;;13.00;99.90;;;;;;5000479;28;20471;-77
2022/09/25 01:59:08;;;;;;;14.50;10.75;;;13.00;99.90;;;;;;5020475;28;20026;-78
2022/09/25 02:01:40;;;;;;;19.10;10.77;;;13.00;99.90;;;;;;5020176;28;20026;-79
2022/09/25 02:04:31;;;;;;;19.98;10.70;;;13.00;99.90;;;;;;5013299;28;20033;-79
2022/09/25 02:07:00;;;;;;;16.13;11.30;;;13.00;99.90;;;;;;5015679;28;20072;-80
2022/09/25 02:09:46;;;;;;;18.20;10.88;;;13.00;99.90;;;;;;5021817;28;20056;-78
2022/09/25 02:12:16;;;;;;;11.77;9.23;;;13.00;99.90;;;;;;5021543;28;20034;-79
2022/09/25 02:14:54;;;;;;;15.75;9.70;;;13.00;99.90;;;;;;5017011;28;20030;-78
2022/09/25 02:20:33;;;;;;;27.75;10.20;;;13.00;99.90;;;;;;5017140;28;20045;-78
2022/09/25 02:23:17;;;;;;;14.65;9.70;;;13.00;99.90;;;;;;5015424;28;20038;-79
2022/09/25 02:26:03;;;;;;;15.88;11.13;;;13.00;99.90;;;;;;5013266;28;20041;-78
2022/09/25 02:28:29;;;;;;;15.82;10.15;;;13.00;99.90;;;;;;5012875;28;20441;-80
2022/09/25 02:30:58;;;;;;;17.92;10.40;;;13.00;99.90;;;;;;5013055;28;20403;-79
2022/09/25 02:33:25;;;;;;;21.13;10.85;;;13.00;99.90;;;;;;5013562;28;20071;-79
2022/09/25 02:35:52;;;;;;;16.83;9.35;;;13.00;99.90;;;;;;5015085;28;20386;-78
2022/09/25 02:38:18;;;;;;;16.13;10.88;;;13.00;99.90;;;;;;5002670;28;20036;-79
2022/09/25 02:41:16;;;;;;;17.42;9.88;;;13.00;99.90;;;;;;5019185;28;20421;-79
2022/09/25 02:44:18;;;;;;;14.95;9.88;;;13.00;99.90;;;;;;5015588;28;20136;-77
2022/09/25 02:47:13;;;;;;;17.40;10.18;;;13.10;99.90;;;;;;5012792;28;20029;-78
2022/09/25 02:49:58;;;;;;;18.67;10.75;;;13.00;99.90;;;;;;5012294;28;20120;-78
2022/09/25 02:52:31;;;;;;;20.35;11.25;;;13.00;99.90;;;;;;5011994;28;20083;-78
2022/09/25 02:55:07;;;;;;;16.08;11.10;;;13.00;99.90;;;;;;5017690;28;20026;-78
2022/09/25 02:58:23;;;;;;;19.23;11.27;;;13.00;99.90;;;;;;5019005;28;20026;-79
2022/09/25 03:00:52;;;;;;;26.70;10.88;;;13.10;99.90;;;;;;4921850;29;20041;-79
2022/09/25 03:03:19;;;;;;;18.70;10.57;;;13.10;99.90;;;;;;4953501;29;20046;-79
2022/09/25 03:05:47;;;;;;;16.42;11.40;;;13.00;99.90;;;;;;4980813;28;20054;-79
2022/09/25 03:10:58;;;;;;;14.80;10.02;;;13.00;99.90;;;;;;5014858;28;20033;-78
2022/09/25 03:13:30;;;;;;;22.55;10.80;;;13.00;99.90;;;;;;5017428;28;20540;-81
2022/09/25 03:16:04;;;;;;;15.68;10.52;;;12.90;99.90;;;;;;5016160;28;20081;-78
2022/09/25 03:18:30;;;;;;;20.50;10.60;;;12.90;99.90;;;;;;5016199;28;20075;-79
2022/09/25 03:20:57;;;;;;;15.07;10.90;;;12.90;99.90;;;;;;5021965;28;20061;-79
2022/09/25 03:23:23;;;;;;;17.52;11.75;;;12.80;99.90;;;;;;5023807;28;20112;-79
2022/09/25 03:25:49;;;;;;;17.70;10.85;;;12.70;99.90;;;;;;5024631;28;20025;-79
2022/09/25 03:28:15;;;;;;;17.77;11.93;;;12.70;99.90;;;;;;5024143;28;20030;-79
2022/09/25 03:30:41;;;;;;;15.57;12.20;;;12.60;99.90;;;;;;5022170;28;20026;-77
2022/09/25 03:33:11;;;;;;;20.60;12.73;;;12.70;99.90;;;;;;5021588;28;20034;-77
2022/09/25 03:35:37;;;;;;;19.30;12.63;;;12.70;99.90;;;;;;5027185;28;20041;-78
2022/09/25 03:38:03;;;;;;;18.90;12.90;;;12.60;99.90;;;;;;5026556;28;20398;-78
2022/09/25 03:40:30;;;;;;;17.92;12.27;;;12.70;99.90;;;;;;5023616;28;20402;-77
2022/09/25 03:42:56;;;;;;;15.00;11.90;;;12.60;99.90;;;;;;5021953;28;20084;-78
2022/09/25 03:45:21;;;;;;;19.00;12.88;;;12.70;99.90;;;;;;5020828;28;20041;-77
2022/09/25 03:47:47;;;;;;;17.60;12.45;;;12.60;99.90;;;;;;5018680;28;20060;-78
2022/09/25 03:50:13;;;;;;;18.35;12.35;;;12.70;99.90;;;;;;5016824;28;20041;-80
2022/09/25 03:52:39;;;;;;;19.10;12.63;;;12.60;99.90;;;;;;5016685;28;20048;-78
2022/09/25 03:55:05;;;;;;;17.75;12.13;;;12.60;99.90;;;;;;5016012;28;20486;-79
2022/09/25 03:57:32;;;;;;;19.20;11.63;;;12.60;99.90;;;;;;5021658;28;20025;-78
2022/09/25 04:00:00;;;;;;;17.48;11.20;;;12.60;99.90;;;;;;5025955;28;20094;-78
2022/09/25 04:02:27;;;;;;;17.92;13.35;;;12.50;99.90;;;;;;5037940;28;20006;-78
2022/09/25 04:04:53;;;;;;;19.33;12.95;;;12.50;99.90;;;;;;5029137;28;20069;-78
2022/09/25 04:07:23;;;;;;;25.75;13.88;;;12.40;99.90;;;;;;5024360;28;20025;-78
2022/09/25 04:09:50;;;;;;;19.17;12.73;;;12.40;99.90;;;;;;5024479;28;20018;-77
2022/09/25 04:12:16;;;;;;;21.80;13.63;;;12.30;99.90;;;;;;5022103;28;20034;-78
2022/09/25 04:14:44;;;;;;;21.27;13.93;;;12.30;99.90;;;;;;5021136;28;20057;-78
2022/09/25 04:17:10;;;;;;;22.23;14.13;;;12.30;99.90;;;;;;5006759;28;20033;-79
2022/09/25 04:19:36;;;;;;;20.33;13.80;;;12.20;99.90;;;;;;5022123;28;20030;-78
2022/09/25 04:22:02;;;;;;;21.70;14.27;;;12.20;99.90;;;;;;5019186;28;20026;-78
2022/09/25 04:27:13;;;;;;;21.43;14.37;;;12.20;99.90;;;;;;5019957;28;20040;-78
2022/09/25 04:29:39;;;;;;;24.98;15.02;;;12.10;99.90;;;;;;5019104;28;20492;-77
2022/09/25 04:34:49;;;;;;;26.75;16.17;;;12.10;99.90;;;;;;5020976;28;20078;-79
2022/09/25 04:37:15;;;;;;;23.38;15.52;;;12.00;99.90;;;;;;5020351;28;20025;-78
2022/09/25 04:39:41;;;;;;;21.85;15.30;;;12.00;99.90;;;;;;5017813;28;20068;-78
2022/09/25 04:42:06;;;;;;;24.85;17.15;;;12.00;99.90;;;;;;5019554;28;20113;-78
2022/09/25 04:44:32;;;;;;;27.30;17.20;;;12.00;99.90;;;;;;5019246;28;20088;-78
2022/09/25 04:46:58;;;;;;;25.25;17.55;;;12.00;99.90;;;;;;5021464;28;20033;-79
2022/09/25 04:49:23;;;;;;;24.00;16.25;;;12.10;99.90;;;;;;5019738;28;20029;-79
2022/09/25 04:51:49;;;;;;;24.85;16.25;;;12.00;99.90;;;;;;5020090;28;20074;-77
2022/09/25 04:54:15;;;;;;;24.33;16.48;;;12.00;99.90;;;;;;5015656;28;20037;-79
2022/09/25 04:56:44;;;;;;;34.30;17.42;;;12.10;99.90;;;;;;5015254;28;20101;-78
2022/09/25 04:59:16;;;;;;;27.75;17.48;;;12.10;99.90;;;;;;5015482;28;20030;-79
2022/09/25 05:01:42;;;;;;;28.25;16.98;;;12.10;99.90;;;;;;5016397;28;20034;-78
2022/09/25 05:04:07;;;;;;;32.25;16.70;;;12.10;99.90;;;;;;5021504;28;20136;-78
2022/09/25 05:06:33;;;;;;;24.98;16.65;;;12.10;99.90;;;;;;5021846;28;20037;-78
2022/09/25 05:08:59;;;;;;;24.75;16.55;;;12.10;99.90;;;;;;5027771;28;20029;-77
2022/09/25 05:11:24;;;;;;;29.80;17.13;;;12.10;99.90;;;;;;5028494;28;20038;-77
2022/09/25 05:13:51;;;;;;;24.95;16.40;;;12.10;99.90;;;;;;5023916;28;20022;-76
2022/09/25 05:16:18;;;;;;;24.35;15.85;;;12.10;99.90;;;;;;5021929;28;20033;-78
2022/09/25 05:18:43;;;;;;;24.67;16.25;;;12.10;99.90;;;;;;5015044;28;20462;-79
2022/09/25 05:21:09;;;;;;;26.25;15.93;;;12.10;99.90;;;;;;5015199;28;20026;-80
2022/09/25 05:23:35;;;;;;;26.85;16.52;;;12.10;99.90;;;;;;5023946;28;20030;-78
2022/09/25 05:26:01;;;;;;;26.65;16.15;;;12.10;99.90;;;;;;5038414;28;20055;-78
2022/09/25 05:28:28;;;;;;;22.65;15.70;;;12.10;99.90;;;;;;5023477;28;20180;-80
2022/09/25 05:30:54;;;;;;;28.70;16.55;;;12.10;99.90;;;;;;5017858;28;20053;-80
2022/09/25 05:33:20;;;;;;;22.38;15.95;;;12.20;99.90;;;;;;5019397;28;20053;-79
2022/09/25 05:35:47;;;;;;;26.02;16.15;;;12.20;99.90;;;;;;5018514;28;20029;-79
2022/09/25 05:38:13;;;;;;;26.17;15.40;;;12.30;99.90;;;;;;5018787;28;20113;-79
2022/09/25 05:40:39;;;;;;;25.73;15.73;;;12.30;99.90;;;;;;5023917;28;20034;-80
2022/09/25 05:43:06;;;;;;;26.05;16.13;;;12.30;99.90;;;;;;5028804;28;20052;-80
2022/09/25 05:45:33;;;;;;;22.95;13.98;;;12.40;99.90;;;;;;5018653;28;20044;-78
2022/09/25 05:48:04;;;;;;;21.40;14.63;;;12.40;99.90;;;;;;5020093;28;20037;-80
2022/09/25 05:50:33;;;;;;;22.13;14.52;;;12.50;99.90;;;;;;5020171;28;20034;-79
2022/09/25 05:53:01;;;;;;;24.25;14.77;;;12.50;99.90;;;;;;5016198;28;20084;-79
2022/09/25 05:55:28;;;;;;;19.90;13.50;;;12.60;99.90;;;;;;5015552;28;20386;-80
2022/09/25 05:58:02;;;;;;;22.80;14.13;;;12.70;99.90;;;;;;5015414;28;20204;-79
2022/09/25 06:00:31;;;;;;;24.42;14.38;;;12.70;99.90;;;;;;5047694;28;20034;-79
2022/09/25 06:02:57;;;;;;;22.33;14.45;;;12.80;99.90;;;;;;5015233;28;20034;-82
2022/09/25 06:05:23;;;;;;;22.73;13.70;;;12.80;99.90;;;;;;5050304;28;20034;-78
2022/09/25 06:07:53;;;;;;;23.50;14.93;;;12.90;99.90;;;;;;5021364;28;20053;-78
2022/09/25 06:10:19;;;;;;;20.35;12.88;;;13.00;99.90;;;;;;5022946;28;20026;-77
2022/09/25 06:12:47;;;;;;;24.05;13.85;;;13.10;99.90;;;;;;5020484;28;20077;-81
2022/09/25 06:15:13;;;;;;;17.77;12.30;;;13.10;99.90;;;;;;5030030;28;20025;-80
2022/09/25 06:17:39;;;;;;;21.13;13.68;;;13.10;99.90;;;;;;5021557;28;20029;-80
2022/09/25 06:20:05;;;;;;;21.90;13.65;;;13.10;99.90;;;;;;5015169;28;20113;-81
2022/09/25 06:22:31;;;;;;;17.33;12.07;;;13.10;99.90;;;;;;5014951;28;20021;-79
2022/09/25 06:24:56;;;;;;;19.05;12.48;;;13.20;99.90;;;;;;5015212;28;20041;-80
2022/09/25 06:27:22;;;;;;;18.88;12.05;;;13.30;99.90;;;;;;5017189;28;20018;-80
2022/09/25 06:29:48;;;;;;;24.95;12.40;;;13.40;99.90;;;;;;4996843;28;20136;-80
2022/09/25 06:32:15;;;;;;;21.88;12.48;;;13.50;99.90;;;;;;5014912;28;20446;-80
2022/09/25 06:34:41;;;;;;;18.83;12.15;;;13.60;99.90;;;;;;4999679;28;20041;-78
2022/09/25 06:37:07;;;;;;;20.73;12.57;;;13.60;99.90;;;;;;5020765;28;20026;-78
2022/09/25 06:39:33;;;;;;;18.33;11.40;;;13.60;99.90;;;;;;5019021;28;20040;-79
2022/09/25 06:41:59;;;;;;;24.17;12.63;;;13.70;99.90;;;;;;5016951;28;20025;-78
2022/09/25 06:44:25;;;;;;;20.40;11.68;;;13.90;99.90;;;;;;5018494;28;20535;-78
2022/09/25 06:46:53;;;;;;;18.85;11.63;;;13.90;99.90;;;;;;5053613;28;20053;-80
2022/09/25 06:49:19;;;;;;;16.88;11.32;;;14.00;99.90;;;;;;5053706;28;20034;-79
2022/09/25 06:51:45;;;;;;;16.05;11.57;;;14.10;99.90;;;;;;5028908;28;20056;-78
2022/09/25 06:54:11;;;;;;;20.05;11.32;;;14.20;99.90;;;;;;5033012;28;20036;-78
2022/09/25 06:56:37;;;;;;;15.75;10.77;;;14.30;99.90;;;;;;5037019;28;20018;-79
2022/09/25 06:59:04;;;;;;;13.90;10.68;;;14.30;99.90;;;;;;5016643;28;20030;-80
2022/09/25 07:01:29;;;;;;;17.17;11.32;;;14.40;99.90;;;;;;5016764;28;20056;-80
2022/09/25 07:03:55;;;;;;;17.27;12.00;;;14.50;99.90;;;;;;5016199;28;20030;-79
2022/09/25 07:06:25;;;;;;;20.35;12.23;;;14.40;99.90;;;;;;5022869;28;20036;-81
2022/09/25 07:08:51;;;;;;;27.13;12.68;;;14.40;99.90;;;;;;5022224;28;20435;-82
2022/09/25 07:11:20;;;;;;;20.25;13.05;;;14.30;99.90;;;;;;5020766;28;20026;-79
2022/09/25 07:13:48;;;;;;;17.50;13.15;;;14.40;99.90;;;;;;5019599;28;20079;-81
2022/09/25 07:16:16;;;;;;;18.55;12.63;;;14.50;99.90;;;;;;5020404;28;20096;-87
2022/09/25 07:18:43;;;;;;;21.95;12.40;;;14.60;99.90;;;;;;5020578;28;20030;-80
2022/09/25 07:21:14;;;;;;;19.08;13.68;;;14.70;99.90;;;;;;5052583;28;20035;-82
2022/09/25 07:23:41;;;;;;;18.40;12.80;;;14.80;99.90;;;;;;5019633;28;20140;-80
2022/09/25 07:26:15;;;;;;;18.80;13.10;;;14.90;99.90;;;;;;5019868;28;20040;-79
2022/09/25 07:28:43;;;;;;;16.63;13.13;;;14.90;99.90;;;;;;5019723;28;20038;-79
2022/09/25 07:31:14;;;;;;;16.83;11.77;;;15.00;99.90;;;;;;5021486;28;20053;-78
2022/09/25 07:33:40;;;;;;;21.45;12.43;;;15.00;99.90;;;;;;5025458;28;20041;-79
2022/09/25 07:36:05;;;;;;;21.83;13.15;;;15.00;99.90;;;;;;5024377;28;20022;-78
2022/09/25 07:38:33;;;;;;;17.85;12.10;;;15.00;99.90;;;;;;5058783;28;20208;-77
2022/09/25 07:40:59;;;;;;;20.55;13.65;;;15.00;99.90;;;;;;5026273;28;20029;-79
2022/09/25 07:43:24;;;;;;;20.30;12.70;;;15.00;99.90;;;;;;5025888;28;20073;-78
2022/09/25 07:45:53;;;;;;;20.95;12.55;;;15.20;99.90;;;;;;5026665;28;20037;-79
2022/09/25 07:48:22;;;;;;;17.98;11.90;;;15.30;99.90;;;;;;5025484;28;20038;-78
2022/09/25 07:50:48;;;;;;;14.70;10.40;;;15.40;99.90;;;;;;5059733;28;20080;-78
2022/09/25 07:53:17;;;;;;;16.80;11.05;;;15.50;99.90;;;;;;5025912;28;20033;-77
2022/09/25 07:55:43;;;;;;;20.27;11.55;;;15.70;99.90;;;;;;5058735;28;20034;-79
2022/09/25 07:58:10;;;;;;;15.73;11.10;;;15.90;99.90;;;;;;5027710;28;20026;-78
2022/09/25 08:00:36;;;;;;;16.88;11.73;;;16.00;99.90;;;;;;5025117;28;20034;-77
2022/09/25 08:03:02;;;;;;;17.48;10.70;;;16.00;99.90;;;;;;5055674;28;20053;-78
2022/09/25 08:05:28;;;;;;;19.13;11.60;;;15.90;99.90;;;;;;5024982;28;20042;-78
2022/09/25 08:07:54;;;;;;;22.60;12.25;;;15.70;99.90;;;;;;5025078;28;20091;-79
2022/09/25 08:10:20;;;;;;;18.23;13.07;;;15.50;99.90;;;;;;5024582;28;20026;-78
2022/09/25 08:12:46;;;;;;;19.60;12.75;;;15.30;99.90;;;;;;5058929;28;20078;-78
2022/09/25 08:15:15;;;;;;;17.80;11.45;;;15.30;99.90;;;;;;5023849;28;20127;-79
2022/09/25 08:17:41;;;;;;;18.08;11.85;;;15.30;99.90;;;;;;5026743;28;20053;-77
2022/09/25 08:20:08;;;;;;;18.63;11.75;;;15.50;99.90;;;;;;5027582;28;20025;-78
2022/09/25 08:22:34;;;;;;;14.77;10.85;;;15.50;99.90;;;;;;5027403;28;20036;-78
2022/09/25 08:25:03;;;;;;;20.70;11.10;;;15.60;99.90;;;;;;5024263;28;20101;-78
2022/09/25 08:27:29;;;;;;;15.98;10.13;;;15.50;99.90;;;;;;5020785;28;20072;-76
2022/09/25 08:29:55;;;;;;;19.67;11.13;;;15.60;99.90;;;;;;5020840;28;20026;-78
2022/09/25 08:32:21;;;;;;;17.95;10.68;;;15.70;99.90;;;;;;5023831;28;20048;-79
2022/09/25 08:34:47;;;;;;;15.23;10.68;;;15.90;99.90;;;;;;5024174;28;20073;-79
2022/09/25 08:37:15;;;;;;;18.83;10.43;;;16.00;99.90;;;;;;5059304;28;20026;-77
2022/09/25 08:39:41;;;;;;;14.85;9.63;;;16.10;99.90;;;;;;5019811;28;20022;-79
2022/09/25 08:42:29;;;;;;;20.95;10.52;;;16.10;99.90;;;;;;5022543;28;20148;-76
2022/09/25 08:50:28;;;;;;;15.20;11.65;;;16.00;99.90;;;;;;5047725;28;20034;-77
2022/09/25 08:53:21;;;;;;;15.82;10.98;;;15.90;99.90;;;;;;5019702;28;20470;-77
2022/09/25 08:58:41;;;;;;;19.45;10.98;;;15.80;99.90;;;;;;5053128;28;20040;-77
2022/09/25 09:01:12;;;;;;;16.33;10.35;;;15.90;99.90;;;;;;5020244;28;20034;-78
2022/09/25 09:04:05;;;;;;;15.95;10.55;;;16.00;99.90;;;;;;5021177;28;20090;-79
2022/09/25 09:06:33;;;;;;;16.25;10.77;;;16.00;99.90;;;;;;5015310;28;20046;-78
2022/09/25 09:09:11;;;;;;;18.02;11.43;;;15.90;99.90;;;;;;5015039;28;20026;-78
2022/09/25 09:11:51;;;;;;;23.48;12.00;;;15.90;99.90;;;;;;5015343;28;20034;-78
2022/09/25 09:14:19;;;;;;;19.52;12.05;;;15.80;99.90;;;;;;5015972;28;20068;-78
2022/09/25 09:16:52;;;;;;;21.48;13.45;;;15.70;99.90;;;;;;5014975;28;20083;-77
2022/09/25 09:19:17;;;;;;;20.23;13.35;;;15.70;99.90;;;;;;5014707;28;20406;-78
2022/09/25 09:22:08;;;;;;;18.42;12.50;;;15.70;99.90;;;;;;5015835;28;20029;-78
2022/09/25 09:24:40;;;;;;;21.10;13.32;;;15.70;99.90;;;;;;5016068;28;20026;-79
2022/09/25 09:27:39;;;;;;;20.67;12.30;;;15.70;99.90;;;;;;5014623;28;20548;-77
2022/09/25 09:30:15;;;;;;;20.92;12.07;;;15.80;99.90;;;;;;5016172;28;20040;-79
2022/09/25 09:32:44;;;;;;;21.55;13.10;;;15.90;99.90;;;;;;5052732;28;20030;-78
2022/09/25 09:35:12;;;;;;;22.73;13.68;;;15.90;99.90;;;;;;5020367;28;20105;-80
2022/09/25 09:37:50;;;;;;;17.58;13.10;;;15.90;99.90;;;;;;5021398;28;20403;-78
2022/09/25 09:40:25;;;;;;;17.10;12.50;;;16.00;99.90;;;;;;5016577;28;20022;-79
2022/09/25 09:43:30;;;;;;;20.25;12.75;;;16.00;99.90;;;;;;5015798;28;20045;-79
2022/09/25 09:46:01;;;;;;;20.15;13.48;;;16.00;99.90;;;;;;5015684;28;20057;-79
2022/09/25 09:48:35;;;;;;;27.23;13.38;;;15.90;99.90;;;;;;5016887;28;20030;-79
2022/09/25 09:51:14;;;;;;;20.48;13.43;;;15.90;99.90;;;;;;5016158;28;20030;-78
2022/09/25 09:53:51;;;;;;;21.55;13.45;;;15.90;99.90;;;;;;5015588;28;20056;-78
2022/09/25 09:56:30;;;;;;;22.45;14.02;;;15.90;99.90;;;;;;5046312;28;20050;-77
2022/09/25 09:59:05;;;;;;;22.25;13.90;;;15.90;99.90;;;;;;5013884;28;20022;-77
2022/09/25 10:01:36;;;;;;;21.50;13.57;;;16.00;99.90;;;;;;5015132;28;20436;-77
2022/09/25 10:04:13;;;;;;;29.60;13.82;;;16.00;99.90;;;;;;5016410;28;20049;-77
2022/09/25 10:06:44;;;;;;;21.25;13.20;;;16.00;99.90;;;;;;5015958;28;20461;-79
2022/09/25 10:09:15;;;;;;;17.50;13.48;;;16.00;99.90;;;;;;5013010;28;20030;-79
2022/09/25 10:11:44;;;;;;;21.52;13.35;;;16.00;99.90;;;;;;5046989;28;20042;-77
2022/09/25 10:14:19;;;;;;;20.02;13.13;;;15.80;99.90;;;;;;5016832;28;20061;-77
2022/09/25 10:16:50;;;;;;;19.27;12.88;;;15.80;99.90;;;;;;5016682;28;20064;-77
2022/09/25 10:19:27;;;;;;;18.98;12.65;;;15.70;99.90;;;;;;5016025;28;20022;-81
2022/09/25 10:22:08;;;;;;;27.05;15.27;;;15.80;99.90;;;;;;5019494;28;20089;-77
2022/09/25 10:24:53;;;;;;;20.92;13.02;;;15.80;99.90;;;;;;5022082;28;20141;-78
2022/09/25 10:27:36;;;;;;;20.00;12.93;;;15.80;99.90;;;;;;5016992;28;20053;-78
2022/09/25 10:30:10;;;;;;;21.75;12.60;;;15.80;99.90;;;;;;5013732;28;20041;-78
2022/09/25 10:33:12;;;;;;;17.35;11.98;;;15.80;99.90;;;;;;5047477;28;20037;-77
2022/09/25 10:35:38;;;;;;;21.02;13.25;;;15.80;99.90;;;;;;5012943;28;20041;-80
2022/09/25 10:38:13;;;;;;;24.58;13.80;;;15.70;99.90;;;;;;5016070;28;20498;-77
2022/09/25 10:40:40;;;;;;;19.55;14.10;;;15.70;99.90;;;;;;5022983;28;20068;-78
2022/09/25 10:43:22;;;;;;;17.33;12.77;;;15.60;99.90;;;;;;5025110;28;20038;-79
2022/09/25 10:45:52;;;;;;;21.40;14.55;;;15.60;99.90;;;;;;5025569;28;20053;-77
2022/09/25 10:51:16;;;;;;;21.50;13.85;;;15.60;99.90;;;;;;5027730;28;20126;-77
2022/09/25 10:53:44;;;;;;;23.02;13.35;;;15.60;99.90;;;;;;5064308;28;20210;-79
2022/09/25 10:56:18;;;;;;;20.15;13.15;;;15.60;99.90;;;;;;5028486;28;20044;-78
2022/09/25 10:59:00;;;;;;;22.83;13.43;;;15.70;99.90;;;;;;5025895;28;20118;-77
2022/09/25 11:01:34;;;;;;;20.60;13.25;;;15.60;99.90;;;;;;5026623;28;20037;-77
2022/09/25 11:04:02;;;;;;;22.23;13.57;;;15.70;99.90;;;;;;5026059;28;20037;-79
2022/09/25 11:06:32;;;;;;;19.95;13.50;;;15.70;99.90;;;;;;5057834;28;20033;-77
2022/09/25 11:09:19;;;;;;;19.33;13.23;;;15.70;99.90;;;;;;5032099;28;20646;-79
2022/09/25 11:11:48;;;;;;;19.40;13.40;;;15.60;99.90;;;;;;5042867;28;20076;-77
2022/09/25 11:14:31;;;;;;;19.80;13.48;;;15.50;99.90;;;;;;5022598;28;20048;-77
2022/09/25 11:16:58;;;;;;;18.77;13.27;;;15.50;99.90;;;;;;5023373;28;20102;-78
2022/09/25 11:19:29;;;;;;;21.83;12.68;;;15.60;99.90;;;;;;5019972;28;20022;-78
2022/09/25 11:22:06;;;;;;;24.33;12.55;;;15.60;99.90;;;;;;5053497;28;20030;-78
2022/09/25 11:24:51;;;;;;;22.30;13.52;;;15.70;99.90;;;;;;5031075;28;20040;-77
2022/09/25 11:27:41;;;;;;;21.13;13.63;;;15.70;99.90;;;;;;5038222;28;20033;-77
2022/09/25 11:30:16;;;;;;;22.45;13.30;;;15.70;99.90;;;;;;5037766;28;20041;-76
2022/09/25 11:33:01;;;;;;;19.50;13.32;;;15.70;99.90;;;;;;5067965;28;20056;-78
2022/09/25 11:35:55;;;;;;;20.77;13.38;;;15.90;99.90;;;;;;5037389;28;20042;-79
2022/09/25 11:41:10;;;;;;;18.17;13.93;;;15.90;99.90;;;;;;5037443;28;20049;-77
2022/09/25 11:41:30;;;;;;;21.15;13.95;;;15.90;99.90;;;;;;5038719;28;20034;-79
2022/09/25 11:44:26;;;;;;;19.02;12.82;;;15.90;99.90;;;;;;5033656;28;20406;-77
2022/09/25 11:47:07;;;;;;;18.60;11.30;;;15.90;99.90;;;;;;5022629;28;20041;-79
2022/09/25 11:49:39;;;;;;;22.02;11.40;;;15.90;99.90;;;;;;5022018;28;20502;-78
2022/09/25 11:52:23;;;;;;;26.38;11.63;;;15.90;99.90;;;;;;5049401;28;20091;-79
2022/09/25 11:55:16;;;;;;;14.10;10.57;;;16.00;99.90;;;;;;5051814;28;20037;-78
2022/09/25 11:58:01;;;;;;;16.33;9.63;;;16.10;99.90;;;;;;5021916;28;20022;-78
2022/09/25 12:00:48;;;;;;;14.45;9.35;;;16.20;99.90;;;;;;5020924;28;20109;-78
2022/09/25 12:03:14;;;;;;;16.50;9.43;;;16.40;99.90;;;;;;5017330;28;20029;-79
2022/09/25 12:06:18;;;;;;;17.20;10.48;;;16.40;99.90;;;;;;5244690;22;20036;-90
2022/09/25 12:09:12;;;;;;;14.93;9.55;;;16.20;99.90;;;;;;5086182;28;20046;-89
2022/09/25 12:11:55;;;;;;;21.75;9.73;;;16.10;99.90;;;;;;5083269;28;20048;-89
2022/09/25 12:15:01;;;;;;;14.25;10.27;;;16.10;99.90;;;;;;5116732;28;20032;-88
2022/09/25 12:17:33;;;;;;;;;;;16.20;99.90;;;;;;5071074;28;20040;-88
2022/09/25 12:20:22;;;;;;;14.85;10.63;;;16.10;99.90;;;;;;5078216;28;19908;-87
2022/09/25 12:23:14;;;;;;;14.82;10.20;;;16.10;99.90;;;;;;5076938;28;20032;-88
2022/09/25 12:26:05;;;;;;;21.60;14.45;;;16.00;99.90;;;;;;5060528;28;20037;-88
2022/09/25 12:28:51;;;;;;;18.08;11.27;;;15.90;99.90;;;;;;5058263;28;20035;-87
2022/09/25 12:31:42;;;;;;;16.63;10.95;;;15.90;99.90;;;;;;5058295;28;20048;-89
2022/09/25 12:34:31;;;;;;;16.55;10.80;;;15.90;99.90;;;;;;5057041;28;20024;-87
2022/09/25 12:37:05;;;;;;;15.82;10.10;;;15.90;99.90;;;;;;5068775;28;20036;-89
2022/09/25 12:39:40;;;;;;;17.92;10.38;;;15.80;99.90;;;;;;5056806;28;20039;-88
2022/09/25 12:42:18;;;;;;;;;;;15.90;99.90;;;;;;5075211;28;20037;-88
2022/09/25 12:44:53;;;;;;;17.20;10.10;;;16.00;99.90;;;;;;5076170;28;19936;-89
2022/09/25 12:47:32;;;;;;;16.48;9.25;;;16.30;99.90;;;;;;5059118;28;20067;-87
2022/09/25 12:50:21;;;;;;;14.70;9.40;;;16.70;99.90;;;;;;5075351;28;20017;-86
2022/09/25 12:53:25;;;;;;;16.52;10.07;;;17.00;99.90;;;;;;5074785;28;20048;-87
2022/09/25 12:56:12;;;;;;;14.15;9.82;;;17.10;99.90;;;;;;5069330;28;20083;-89
2022/09/25 12:58:44;;;;;;;16.25;10.32;;;17.10;99.90;;;;;;5075417;28;20047;-90
2022/09/25 13:01:38;;;;;;;12.77;8.77;;;17.50;99.90;;;;;;5075546;28;20036;-89
2022/09/25 13:04:34;;;;;;;15.20;9.43;;;18.10;99.90;;;;;;5075739;28;20066;-88
2022/09/25 13:07:11;;;;;;;12.15;8.43;;;18.50;99.90;;;;;;5075083;28;20074;-88
2022/09/25 13:09:48;;;;;;;15.98;9.38;;;18.90;99.90;;;;;;5069645;28;20035;-89
2022/09/25 13:12:33;;;;;;;12.43;8.95;;;18.80;99.90;;;;;;5053328;28;20056;-90
2022/09/25 13:15:06;;;;;;;13.82;9.00;;;18.80;99.90;;;;;;5054214;28;20036;-90
2022/09/25 13:17:33;;;;;;;13.52;9.43;;;18.50;99.90;;;;;;5070261;28;20048;-89
2022/09/25 13:20:35;;;;;;;13.60;9.07;;;18.50;99.90;;;;;;5068765;28;20484;-88